Time;durP1;ratioP1;P1;durP2;ratioP2;P2;SDS_P1;SDS_P2;PMS_P1;PMS_P2;Temp;Humidity;BMP_temperature;BMP_pressure;BME280_temperature;BME280_humidity;BME280_pressure;Samples;Min_cycle;Max_cycle;Signal;HPM_P1;HPM_P2
2022/09/10 00:01:32;;;;;;;18.00;9.52;;;;;;;24.35;100.00;99874.97;4990667;28;20260;-76
2022/09/10 00:04:00;;;;;;;14.05;9.40;;;;;;;24.42;100.00;99886.16;4990926;28;20669;-76
2022/09/10 00:06:27;;;;;;;12.32;9.05;;;;;;;24.37;100.00;99878.41;4990912;28;20732;-76
2022/09/10 00:08:56;;;;;;;14.73;8.45;;;;;;;24.26;100.00;99858.66;4991332;28;20966;-77
2022/09/10 00:11:26;;;;;;;12.70;9.32;;;;;;;24.46;100.00;99885.09;4991300;28;20204;-77
2022/09/10 00:13:53;;;;;;;13.23;9.05;;;;;;;24.41;100.00;99880.00;4991409;28;20201;-78
2022/09/10 00:16:20;;;;;;;13.43;9.82;;;;;;;24.48;100.00;99875.28;4990678;28;20217;-77
2022/09/10 00:18:49;;;;;;;11.52;9.80;;;;;;;24.58;100.00;99871.28;4991356;28;20669;-77
2022/09/10 00:21:19;;;;;;;15.48;9.10;;;;;;;24.61;100.00;99871.16;4990355;28;20205;-77
2022/09/10 00:23:46;;;;;;;14.52;10.00;;;;;;;24.52;100.00;99868.91;4990295;28;20246;-77
2022/09/10 00:26:17;;;;;;;14.38;8.85;;;;;;;24.66;100.00;99877.09;4990767;28;20659;-77
2022/09/10 00:28:46;;;;;;;13.80;9.55;;;;;;;24.68;100.00;99873.44;4990930;28;20216;-77
2022/09/10 00:31:13;;;;;;;15.73;8.90;;;;;;;24.63;100.00;99874.59;4991137;28;20205;-78
2022/09/10 00:33:41;;;;;;;12.93;9.15;;;;;;;24.58;100.00;99850.06;4990801;28;20216;-77
2022/09/10 00:36:15;;;;;;;15.48;9.13;;;;;;;24.75;100.00;99871.38;4991194;28;20289;-77
2022/09/10 00:38:42;;;;;;;12.35;9.38;;;;;;;24.65;100.00;99872.72;4990524;28;20194;-77
2022/09/10 00:41:09;;;;;;;10.85;8.73;;;;;;;24.49;100.00;99855.81;4990836;28;20221;-77
2022/09/10 00:43:52;;;;;;;13.15;9.15;;;;;;;24.67;100.00;99847.00;4955966;28;20232;-77
2022/09/10 00:46:27;;;;;;;19.15;10.98;;;;;;;24.61;100.00;99839.34;4991059;28;20210;-77
2022/09/10 00:48:56;;;;;;;24.92;10.98;;;;;;;24.78;100.00;99862.41;4953462;28;20206;-77
2022/09/10 00:51:25;;;;;;;14.73;10.20;;;;;;;24.47;100.00;99820.56;4982225;28;20281;-77
2022/09/10 00:53:52;;;;;;;16.67;11.30;;;;;;;24.60;100.00;99866.78;4990819;28;20729;-77
2022/09/10 00:56:18;;;;;;;15.43;11.23;;;;;;;24.58;100.00;99861.53;4990576;28;20264;-77
2022/09/10 00:58:46;;;;;;;16.42;11.40;;;;;;;24.16;100.00;99783.97;4956529;28;20584;-77
2022/09/10 01:01:15;;;;;;;14.30;10.25;;;;;;;24.53;100.00;99860.91;4991008;28;21003;-77
2022/09/10 01:03:43;;;;;;;20.15;11.98;;;;;;;24.58;100.00;99840.31;4991417;28;20731;-77
2022/09/10 01:06:11;;;;;;;17.13;11.85;;;;;;;24.44;100.00;99825.97;4994474;28;20229;-77
2022/09/10 01:08:37;;;;;;;22.77;11.70;;;;;;;24.49;100.00;99842.56;4994175;28;20230;-77
2022/09/10 01:11:34;;;;;;;23.45;12.30;;;;;;;24.61;100.00;99839.34;4994035;28;20206;-77
2022/09/10 01:14:20;;;;;;;14.82;12.30;;;;;;;24.47;100.00;99825.88;4895226;29;20208;-77
2022/09/10 01:17:03;;;;;;;28.10;13.40;;;;;;;24.60;100.00;99830.53;4837072;29;20201;-77
2022/09/10 01:19:57;;;;;;;23.65;12.60;;;;;;;24.62;100.00;99827.78;4895846;29;20233;-78
2022/09/10 01:22:31;;;;;;;15.82;11.73;;;;;;;24.57;100.00;99829.81;4895660;29;20229;-77
2022/09/10 01:25:06;;;;;;;15.07;12.15;;;;;;;24.46;100.00;99813.53;4885972;29;20200;-77
2022/09/10 01:27:40;;;;;;;17.60;13.00;;;;;;;24.56;100.00;99820.13;4896246;29;20204;-77
2022/09/10 01:30:11;;;;;;;17.23;12.65;;;;;;;24.47;100.00;99816.09;4895729;29;20272;-77
2022/09/10 01:32:49;;;;;;;15.45;13.43;;;;;;;24.47;100.00;99820.56;4895912;29;20213;-78
2022/09/10 01:35:18;;;;;;;15.05;12.18;;;;;;;24.36;100.00;99822.84;4895999;29;20602;-78
2022/09/10 01:37:50;;;;;;;22.83;14.10;;;;;;;24.34;100.00;99819.38;4895504;29;20281;-77
2022/09/10 01:40:18;;;;;;;22.50;12.77;;;;;;;24.23;100.00;99803.09;4895649;29;20201;-77
2022/09/10 01:42:49;;;;;;;20.08;12.50;;;;;;;24.27;100.00;99802.91;4895721;29;20752;-77
2022/09/10 01:45:16;;;;;;;20.08;12.00;;;;;;;24.30;100.00;99823.09;4895730;29;20201;-77
2022/09/10 01:48:03;;;;;;;24.15;11.65;;;;;;;24.33;100.00;99829.13;4895712;29;20654;-77
2022/09/10 01:50:39;;;;;;;22.67;12.23;;;;;;;24.24;100.00;99834.84;4914017;28;20209;-77
2022/09/10 01:53:21;;;;;;;14.75;11.80;;;;;;;24.12;100.00;99830.91;4993302;28;20220;-77
2022/09/10 01:55:58;;;;;;;15.18;11.65;;;;;;;23.92;100.00;99801.81;4993568;28;20228;-78
2022/09/10 01:58:34;;;;;;;15.38;12.60;;;;;;;23.97;100.00;99820.97;4976113;28;20239;-77
2022/09/10 02:01:10;;;;;;;17.95;12.30;;;;;;;23.98;100.00;99813.91;4992665;28;20201;-77
2022/09/10 02:03:40;;;;;;;15.00;11.98;;;;;;;24.01;100.00;99808.47;4975320;28;20252;-78
2022/09/10 02:06:09;;;;;;;17.88;12.65;;;;;;;24.02;100.00;99799.59;4993196;28;20677;-78
2022/09/10 02:08:40;;;;;;;18.83;12.50;;;;;;;24.25;100.00;99827.75;4992360;28;20253;-77
2022/09/10 02:11:11;;;;;;;14.98;11.90;;;;;;;24.21;100.00;99832.34;4993102;28;20205;-77
2022/09/10 02:13:41;;;;;;;17.48;11.32;;;;;;;24.20;100.00;99833.25;4955371;28;20405;-78
2022/09/10 02:16:11;;;;;;;16.23;11.65;;;;;;;24.12;100.00;99809.72;4991554;28;20205;-78
2022/09/10 02:18:41;;;;;;;21.73;12.55;;;;;;;24.31;100.00;99822.19;4993219;28;20198;-78
2022/09/10 02:21:10;;;;;;;17.25;11.55;;;;;;;24.42;100.00;99817.25;4992826;28;20224;-78
2022/09/10 02:23:43;;;;;;;19.23;13.63;;;;;;;24.34;100.00;99792.88;4992066;28;20229;-78
2022/09/10 02:26:10;;;;;;;17.52;12.70;;;;;;;24.37;100.00;99790.09;4992907;28;20268;-78
2022/09/10 02:28:37;;;;;;;17.25;11.52;;;;;;;24.35;100.00;99806.06;4993299;28;20197;-78
2022/09/10 02:31:05;;;;;;;18.90;11.45;;;;;;;24.33;100.00;99828.28;4982969;28;20198;-78
2022/09/10 02:33:32;;;;;;;16.42;11.40;;;;;;;24.00;100.00;99820.88;4973993;28;20297;-78
2022/09/10 02:35:59;;;;;;;16.90;12.10;;;;;;;23.93;100.00;99824.72;4973679;28;20209;-78
2022/09/10 02:38:28;;;;;;;14.68;11.70;;;;;;;24.04;100.00;99833.03;4987063;28;20260;-78
2022/09/10 02:40:58;;;;;;;18.67;12.32;;;;;;;24.03;100.00;99833.97;4992673;28;20202;-77
2022/09/10 02:43:24;;;;;;;23.98;12.60;;;;;;;24.01;100.00;99822.56;4992145;28;20795;-77
2022/09/10 02:45:55;;;;;;;16.98;12.10;;;;;;;24.15;100.00;99822.84;4992823;28;20197;-77
2022/09/10 02:48:24;;;;;;;21.67;12.38;;;;;;;24.11;100.00;99825.69;4992237;28;20213;-78
2022/09/10 02:50:51;;;;;;;21.65;12.27;;;;;;;24.02;100.00;99824.31;4992459;28;20213;-78
2022/09/10 02:53:18;;;;;;;17.42;12.75;;;;;;;24.05;100.00;99824.16;4992451;28;20252;-78
2022/09/10 02:55:46;;;;;;;14.70;12.55;;;;;;;24.08;100.00;99828.47;4991805;28;20208;-78
2022/09/10 02:58:13;;;;;;;18.33;12.55;;;;;;;24.05;100.00;99823.31;4991758;28;20284;-78
2022/09/10 03:00:40;;;;;;;23.05;13.10;;;;;;;24.07;100.00;99832.91;4992170;28;20284;-78
2022/09/10 03:03:07;;;;;;;16.67;12.77;;;;;;;23.99;100.00;99815.63;4992037;28;20601;-78
2022/09/10 03:05:37;;;;;;;17.70;12.40;;;;;;;24.19;100.00;99831.53;4992086;28;20647;-78
2022/09/10 03:08:04;;;;;;;14.18;12.20;;;;;;;24.14;100.00;99826.47;4991419;28;20271;-79
2022/09/10 03:10:32;;;;;;;17.02;12.20;;;;;;;24.11;100.00;99829.19;4991996;28;20210;-83
2022/09/10 03:12:58;;;;;;;14.90;12.35;;;;;;;24.16;100.00;99827.22;4957744;28;20206;-78
2022/09/10 03:15:25;;;;;;;17.83;12.15;;;;;;;24.07;100.00;99832.91;4992298;28;20666;-78
2022/09/10 03:17:52;;;;;;;15.30;11.80;;;;;;;24.05;100.00;99829.47;4991530;28;20215;-78
2022/09/10 03:20:21;;;;;;;16.38;12.18;;;;;;;23.90;100.00;99803.63;4991443;28;20213;-78
2022/09/10 03:22:50;;;;;;;13.85;12.32;;;;;;;24.16;100.00;99832.53;4991485;28;20283;-78
2022/09/10 03:25:18;;;;;;;16.90;13.18;;;;;;;23.92;100.00;99803.59;4991102;28;20209;-78
2022/09/10 03:27:45;;;;;;;17.15;13.15;;;;;;;23.83;100.00;99806.66;4991669;28;20236;-78
2022/09/10 03:30:12;;;;;;;18.20;12.82;;;;;;;24.03;100.00;99830.47;4991832;28;20205;-78
2022/09/10 03:32:39;;;;;;;22.95;12.98;;;;;;;23.92;100.00;99817.69;4992091;28;20206;-78
2022/09/10 03:35:06;;;;;;;16.85;13.27;;;;;;;23.82;100.00;99810.22;4991889;28;20197;-78
2022/09/10 03:37:33;;;;;;;22.65;13.75;;;;;;;23.84;100.00;99827.75;4991642;28;20292;-78
2022/09/10 03:40:01;;;;;;;17.90;13.65;;;;;;;23.89;100.00;99816.97;4991557;28;20255;-78
2022/09/10 03:42:28;;;;;;;24.38;13.60;;;;;;;23.81;100.00;99813.78;4991544;28;20202;-78
2022/09/10 03:44:55;;;;;;;21.90;13.60;;;;;;;23.74;100.00;99815.84;4991633;28;20229;-78
2022/09/10 03:47:22;;;;;;;22.70;13.73;;;;;;;23.79;100.00;99811.22;4957169;28;20221;-78
2022/09/10 03:49:50;;;;;;;21.98;14.00;;;;;;;23.79;100.00;99818.31;4991590;28;20657;-77
2022/09/10 03:52:17;;;;;;;22.90;13.07;;;;;;;23.74;100.00;99813.19;4991514;28;20677;-78
2022/09/10 03:54:44;;;;;;;13.52;12.00;;;;;;;23.58;100.00;99815.63;4991051;28;20216;-77
2022/09/10 03:57:13;;;;;;;20.70;13.40;;;;;;;23.61;100.00;99817.31;4991358;28;20227;-77
2022/09/10 03:59:40;;;;;;;19.75;13.55;;;;;;;23.57;100.00;99813.06;4972934;28;20198;-77
2022/09/10 04:02:08;;;;;;;27.60;13.35;;;;;;;23.59;100.00;99803.25;4991442;28;20622;-78
2022/09/10 04:04:36;;;;;;;14.35;11.77;;;;;;;23.51;100.00;99808.00;4956837;28;20612;-78
2022/09/10 04:07:03;;;;;;;25.40;12.75;;;;;;;23.53;100.00;99808.81;4990739;28;20189;-78
2022/09/10 04:09:31;;;;;;;16.90;13.30;;;;;;;23.33;100.00;99795.53;4991252;28;20198;-78
2022/09/10 04:11:58;;;;;;;19.48;13.60;;;;;;;23.49;100.00;99807.22;4991041;28;20194;-78
2022/09/10 04:14:26;;;;;;;17.77;13.13;;;;;;;23.62;100.00;99819.00;4991612;28;20237;-78
2022/09/10 04:16:53;;;;;;;21.20;13.35;;;;;;;23.68;100.00;99808.16;4990776;28;20237;-78
2022/09/10 04:19:20;;;;;;;21.95;13.95;;;;;;;23.69;100.00;99807.22;4991779;28;20197;-77
2022/09/10 04:21:47;;;;;;;20.98;13.48;;;;;;;23.69;100.00;99809.88;4991682;28;20225;-78
2022/09/10 04:24:14;;;;;;;20.10;15.25;;;;;;;23.75;100.00;99806.97;4995762;28;20313;-78
2022/09/10 04:26:41;;;;;;;22.88;14.50;;;;;;;23.84;100.00;99809.22;4992767;28;20216;-79
2022/09/10 04:29:08;;;;;;;24.65;15.25;;;;;;;23.87;100.00;99822.31;4990596;28;20568;-77
2022/09/10 04:31:37;;;;;;;20.88;14.02;;;;;;;24.06;100.00;99820.59;4990788;28;20201;-78
2022/09/10 04:34:04;;;;;;;21.85;14.32;;;;;;;23.90;100.00;99755.13;4990736;28;20211;-76
2022/09/10 04:36:31;;;;;;;20.17;13.18;;;;;;;24.67;100.00;99823.13;4991147;28;20205;-75
2022/09/10 04:38:58;;;;;;;18.65;13.30;;;;;;;25.03;100.00;99828.53;4991846;28;20206;-74
2022/09/10 04:41:25;;;;;;;15.35;12.82;;;;;;;25.61;100.00;99839.84;4994691;28;20583;-78
2022/09/10 04:43:52;;;;;;;16.80;11.52;;;;;;;25.92;100.00;99821.38;4976317;28;20225;-81
2022/09/10 04:46:19;;;;;;;17.05;12.13;;;;;;;26.52;100.00;99840.38;4994725;28;20202;-79
2022/09/10 04:48:47;;;;;;;19.08;12.10;;;;;;;26.91;100.00;99846.19;4959617;28;20198;-77
2022/09/10 04:51:14;;;;;;;23.08;12.02;;;;;;;27.05;100.00;99840.09;4994582;28;20292;-77
2022/09/10 04:53:41;;;;;;;18.85;11.60;;;;;;;27.52;96.84;99834.72;4994195;28;20206;-75
2022/09/10 04:56:08;;;;;;;15.13;11.50;;;;;;;27.97;92.84;99837.31;4994623;28;20201;-76
2022/09/10 04:58:35;;;;;;;19.00;10.32;;;;;;;28.20;91.88;99846.63;4994437;28;20225;-78
2022/09/10 05:01:02;;;;;;;17.42;9.90;;;;;;;28.46;89.51;99831.69;4994016;28;20194;-75
2022/09/10 05:03:29;;;;;;;16.13;9.55;;;;;;;28.93;86.43;99848.25;4957332;28;20240;-75
2022/09/10 05:05:57;;;;;;;28.63;21.33;;;;;;;29.21;83.45;99854.50;4992916;28;20736;-76
2022/09/10 05:08:24;;;;;;;12.02;8.75;;;;;;;29.24;81.01;99859.63;4994480;28;20233;-76
2022/09/10 05:10:50;;;;;;;15.23;9.52;;;;;;;29.23;81.20;99868.59;4994082;28;20238;-76
2022/09/10 05:13:17;;;;;;;14.25;9.52;;;;;;;29.32;77.42;99860.88;4993766;28;20198;-78
2022/09/10 05:15:44;;;;;;;14.45;9.65;;;;;;;29.12;78.72;99861.28;4993342;28;20242;-78
2022/09/10 05:18:11;;;;;;;15.05;9.55;;;;;;;28.87;81.13;99866.47;4975760;28;20209;-77
2022/09/10 05:20:38;;;;;;;11.68;9.35;;;;;;;28.47;80.09;99863.59;4993804;28;20267;-79
2022/09/10 05:23:06;;;;;;;13.30;9.90;;;;;;;28.08;85.77;99874.91;4993940;28;20202;-79
2022/09/10 05:25:33;;;;;;;16.17;11.55;;;;;;;27.74;91.13;99864.50;4994274;28;20213;-78
2022/09/10 05:28:00;;;;;;;17.33;10.80;;;;;;;27.44;90.35;99867.09;4994346;28;20280;-79
2022/09/10 05:30:31;;;;;;;20.55;10.90;;;;;;;27.48;90.20;99865.16;4994374;28;20292;-82
2022/09/10 05:32:59;;;;;;;16.63;9.82;;;;;;;27.48;90.93;99855.38;4993854;28;20200;-81
2022/09/10 05:35:26;;;;;;;17.00;11.05;;;;;;;27.27;92.14;99856.56;4991812;28;20210;-77
2022/09/10 05:37:53;;;;;;;21.92;10.50;;;;;;;27.36;90.75;99852.53;4993845;28;20213;-83
2022/09/10 05:40:21;;;;;;;18.85;11.43;;;;;;;27.22;91.86;99847.97;4994186;28;20205;-76
2022/09/10 05:42:48;;;;;;;12.85;10.60;;;;;;;27.13;95.54;99855.63;4957088;28;20217;-79
2022/09/10 05:45:17;;;;;;;30.67;17.40;;;;;;;27.08;96.31;99843.44;4993855;28;20276;-77
2022/09/10 05:47:44;;;;;;;23.65;13.15;;;;;;;27.12;95.81;99849.44;4974898;28;20217;-80
2022/09/10 05:50:11;;;;;;;17.13;12.38;;;;;;;26.85;97.11;99848.34;4992250;28;20206;-79
2022/09/10 05:52:38;;;;;;;15.88;10.55;;;;;;;26.79;98.54;99849.47;4993361;28;20211;-78
2022/09/10 05:55:05;;;;;;;21.70;10.68;;;;;;;26.63;99.45;99836.19;4958110;28;20205;-80
2022/09/10 05:57:34;;;;;;;24.83;11.23;;;;;;;26.62;100.00;99831.81;4980836;28;20728;-79
2022/09/10 06:00:01;;;;;;;12.65;10.52;;;;;;;26.68;100.00;99845.72;4993594;28;20201;-87
2022/09/10 06:02:28;;;;;;;22.02;11.40;;;;;;;26.57;100.00;99796.63;4994129;28;20611;-86
2022/09/10 06:04:54;;;;;;;19.17;10.07;;;;;;;26.72;100.00;99840.13;4993854;28;20289;-85
2022/09/10 06:07:21;;;;;;;18.02;10.93;;;;;;;26.77;100.00;99827.44;4993749;28;20204;-80
2022/09/10 06:09:48;;;;;;;16.30;10.02;;;;;;;27.07;99.80;99838.22;4993958;28;20678;-86
2022/09/10 06:12:16;;;;;;;26.63;11.20;;;;;;;27.26;97.90;99843.31;4993923;28;20268;-86
2022/09/10 06:14:44;;;;;;;24.08;11.55;;;;;;;27.38;97.49;99847.97;4993361;28;20256;-81
2022/09/10 06:17:11;;;;;;;11.85;10.55;;;;;;;26.82;100.00;99849.38;4974523;28;20223;-80
2022/09/10 06:19:38;;;;;;;14.75;11.52;;;;;;;27.00;100.00;99850.16;4992627;28;20260;-81
2022/09/10 06:22:05;;;;;;;13.80;11.30;;;;;;;26.95;100.00;99842.41;4993285;28;20206;-82
2022/09/10 06:24:32;;;;;;;20.25;12.05;;;;;;;27.11;100.00;99853.91;4993337;28;20234;-75
2022/09/10 06:26:59;;;;;;;15.60;11.68;;;;;;;27.29;100.00;99853.84;4993212;28;20205;-77
2022/09/10 06:29:26;;;;;;;17.17;11.77;;;;;;;27.58;98.21;99848.56;4992993;28;20201;-77
2022/09/10 06:31:54;;;;;;;23.95;12.65;;;;;;;27.61;96.35;99817.38;4993006;28;20662;-79
2022/09/10 06:34:21;;;;;;;16.83;10.93;;;;;;;27.80;96.10;99848.16;5006978;28;20208;-78
2022/09/10 06:36:49;;;;;;;13.50;11.15;;;;;;;27.49;96.71;99851.75;4992961;28;20220;-78
2022/09/10 06:39:16;;;;;;;17.65;10.70;;;;;;;27.21;98.69;99850.75;4992849;28;20209;-79
2022/09/10 06:41:43;;;;;;;15.88;10.80;;;;;;;27.03;100.00;99864.16;4992561;28;20205;-75
2022/09/10 06:44:10;;;;;;;18.60;10.65;;;;;;;26.68;100.00;99854.56;4992328;28;20594;-75
2022/09/10 06:46:37;;;;;;;15.50;10.40;;;;;;;26.74;100.00;99850.69;4992278;28;20268;-78
2022/09/10 06:49:06;;;;;;;14.32;10.30;;;;;;;26.70;100.00;99807.44;4992564;28;20684;-76
2022/09/10 06:51:33;;;;;;;18.80;11.07;;;;;;;27.21;100.00;99856.94;4974040;28;20237;-73
2022/09/10 06:54:01;;;;;;;14.30;11.48;;;;;;;27.18;100.00;99859.78;4992506;28;20249;-76
2022/09/10 06:56:28;;;;;;;15.68;10.38;;;;;;;27.21;100.00;99846.28;4992162;28;20241;-74
2022/09/10 06:58:56;;;;;;;20.38;11.55;;;;;;;27.39;100.00;99865.66;4992477;28;20749;-78
2022/09/10 07:01:24;;;;;;;15.75;11.30;;;;;;;27.40;100.00;99862.91;4992015;28;20303;-77
2022/09/10 07:03:55;;;;;;;16.42;10.57;;;;;;;27.74;100.00;99872.50;4992657;28;20237;-77
2022/09/10 07:06:25;;;;;;;12.57;10.45;;;;;;;27.78;100.00;99858.06;4992273;28;20300;-79
2022/09/10 07:08:55;;;;;;;23.58;10.68;;;;;;;28.03;100.00;99874.31;4991918;28;20233;-79
2022/09/10 07:11:23;;;;;;;17.48;10.45;;;;;;;28.25;97.09;99878.38;4992246;28;20252;-78
2022/09/10 07:13:52;;;;;;;16.88;10.65;;;;;;;28.71;94.12;99877.28;4992106;28;20217;-80
2022/09/10 07:16:19;;;;;;;17.60;10.57;;;;;;;28.80;92.81;99886.50;4974163;28;20206;-79
2022/09/10 07:18:48;;;;;;;18.60;11.45;;;;;;;28.64;93.18;99870.56;4991892;28;20209;-76
2022/09/10 07:21:16;;;;;;;20.27;12.00;;;;;;;29.10;90.41;99889.03;4992120;28;20201;-78
2022/09/10 07:23:46;;;;;;;16.02;10.93;;;;;;;29.36;90.52;99890.94;4991829;28;20217;-78
2022/09/10 07:26:15;;;;;;;20.95;12.77;;;;;;;29.56;89.16;99892.28;4991879;28;20254;-78
2022/09/10 07:28:42;;;;;;;24.30;12.23;;;;;;;29.08;94.41;99880.25;4973669;28;20213;-78
2022/09/10 07:31:14;;;;;;;17.20;12.45;;;;;;;29.59;92.21;99879.56;4991842;28;20225;-79
2022/09/10 07:33:42;;;;;;;22.38;13.40;;;;;;;29.31;93.18;99859.16;4991778;28;20217;-78
2022/09/10 07:36:09;;;;;;;22.27;13.77;;;;;;;29.19;92.94;99851.91;4991576;28;20205;-77
2022/09/10 07:38:36;;;;;;;19.27;13.73;;;;;;;29.33;92.74;99872.41;4991484;28;20271;-81
2022/09/10 07:41:06;;;;;;;33.38;14.05;;;;;;;29.02;95.05;99871.69;4991863;28;20618;-78
2022/09/10 07:43:32;;;;;;;31.95;13.60;;;;;;;28.85;95.51;99874.59;4991749;28;20845;-77
2022/09/10 07:45:59;;;;;;;23.52;14.50;;;;;;;28.76;95.36;99843.13;4991638;28;20233;-77
2022/09/10 07:48:27;;;;;;;27.42;13.75;;;;;;;29.15;92.32;99871.75;4991338;28;20208;-77
2022/09/10 07:51:01;;;;;;;28.15;15.50;;;;;;;29.73;90.32;99884.84;4991497;28;20194;-75
2022/09/10 07:53:28;;;;;;;27.08;14.70;;;;;;;30.06;88.71;99880.88;4991876;28;20225;-75
2022/09/10 07:55:59;;;;;;;26.48;14.18;;;;;;;30.38;84.52;99844.72;4991652;28;20201;-76
2022/09/10 07:58:28;;;;;;;28.80;13.35;;;;;;;30.62;83.99;99880.50;4991790;28;20244;-77
2022/09/10 08:00:55;;;;;;;23.35;14.50;;;;;;;30.62;81.71;99866.25;4991441;28;20646;-77
2022/09/10 08:03:22;;;;;;;31.38;13.65;;;;;;;30.33;83.50;99822.78;4991897;28;20197;-76
2022/09/10 08:05:49;;;;;;;21.95;13.82;;;;;;;30.92;82.25;99889.03;4991450;28;20240;-77
2022/09/10 08:08:16;;;;;;;23.30;13.75;;;;;;;30.99;81.49;99894.84;4991436;28;20710;-77
2022/09/10 08:10:42;;;;;;;19.63;10.27;;;;;;;31.10;79.15;99891.38;4991375;28;20611;-76
2022/09/10 08:13:09;;;;;;;21.67;11.77;;;;;;;31.59;77.50;99880.59;4991757;28;20201;-77
2022/09/10 08:15:41;;;;;;;25.73;10.50;;;;;;;32.35;74.32;99889.06;4995317;28;20217;-77
2022/09/10 08:18:08;;;;;;;17.90;9.38;;;;;;;32.36;69.57;99874.63;4995560;28;20204;-77
2022/09/10 08:20:35;;;;;;;12.00;8.15;;;;;;;32.50;67.74;99885.13;4995375;28;20208;-77
2022/09/10 08:23:02;;;;;;;19.65;9.38;;;;;;;32.66;66.84;99883.00;4995561;28;20224;-76
2022/09/10 08:25:29;;;;;;;16.27;8.18;;;;;;;32.69;65.29;99882.75;4995255;28;20593;-83
2022/09/10 08:27:57;;;;;;;11.45;8.38;;;;;;;32.66;64.05;99874.94;4995343;28;20685;-76
2022/09/10 08:30:24;;;;;;;16.25;9.05;;;;;;;32.74;64.17;99888.63;4995292;28;20205;-76
2022/09/10 08:32:52;;;;;;;15.82;9.15;;;;;;;32.56;64.14;99886.50;4995147;28;20197;-75
2022/09/10 08:35:19;;;;;;;13.70;9.15;;;;;;;32.52;64.93;99868.94;4995402;28;20213;-75
2022/09/10 08:37:47;;;;;;;9.82;7.38;;;;;;;32.32;62.56;99889.28;4993497;28;20383;-77
2022/09/10 08:40:14;;;;;;;12.75;7.88;;;;;;;32.04;63.27;99895.88;4995123;28;20205;-76
2022/09/10 08:42:47;;;;;;;9.30;7.03;;;;;;;31.73;63.82;99885.78;4957051;28;20228;-76
2022/09/10 08:45:19;;;;;;;14.95;7.65;;;;;;;31.96;63.79;99883.06;4994741;28;20228;-76
2022/09/10 08:47:58;;;;;;;15.88;7.85;;;;;;;32.18;63.48;99873.38;4976723;28;20213;-77
2022/09/10 08:50:35;;;;;;;8.90;7.43;;;;;;;32.59;61.62;99865.66;4994801;28;20215;-76
2022/09/10 08:53:12;;;;;;;10.52;7.20;;;;;;;32.53;60.83;99860.75;4994312;28;20208;-76
2022/09/10 08:55:41;;;;;;;15.68;7.05;;;;;;;32.19;61.58;99867.91;4959953;28;20205;-75
2022/09/10 08:58:14;;;;;;;13.23;7.03;;;;;;;31.79;61.67;99856.66;4994743;28;20279;-76
2022/09/10 09:00:43;;;;;;;12.23;7.45;;;;;;;31.76;62.73;99848.84;4961383;28;20194;-77
2022/09/10 09:03:18;;;;;;;13.48;7.03;;;;;;;31.98;61.74;99857.94;4994702;28;20263;-76
2022/09/10 09:05:47;;;;;;;9.60;6.60;;;;;;;31.99;62.41;99856.97;4976181;28;20700;-77
2022/09/10 09:08:17;;;;;;;9.13;6.75;;;;;;;32.09;61.97;99861.56;4994360;28;20236;-77
2022/09/10 09:10:48;;;;;;;11.05;6.50;;;;;;;32.15;60.88;99868.25;4994386;28;20220;-77
2022/09/10 09:13:35;;;;;;;11.77;7.05;;;;;;;32.14;60.31;99859.34;4994560;28;20204;-77
2022/09/10 09:16:13;;;;;;;9.45;6.72;;;;;;;31.98;59.76;99852.56;4994086;28;20208;-78
2022/09/10 09:18:56;;;;;;;11.77;8.48;;;;;;;31.57;61.83;99843.16;4994181;28;20208;-77
2022/09/10 09:21:31;;;;;;;14.55;8.20;;;;;;;31.61;63.39;99844.66;4994327;28;20293;-79
2022/09/10 09:23:58;;;;;;;13.25;8.63;;;;;;;31.79;64.01;99850.44;4994356;28;20284;-76
2022/09/10 09:26:33;;;;;;;14.00;8.50;;;;;;;31.88;61.87;99842.56;4993958;28;20234;-75
2022/09/10 09:29:06;;;;;;;17.58;9.85;;;;;;;31.92;61.15;99846.72;4994402;28;20263;-75
2022/09/10 09:31:37;;;;;;;16.90;10.23;;;;;;;31.98;61.47;99844.53;4960778;28;20850;-77
2022/09/10 09:34:15;;;;;;;17.45;9.48;;;;;;;31.88;60.82;99842.56;4994359;28;20201;-77
2022/09/10 09:36:48;;;;;;;22.15;9.18;;;;;;;32.09;61.02;99847.28;4993943;28;20211;-76
2022/09/10 09:39:23;;;;;;;12.05;8.15;;;;;;;31.80;61.59;99834.25;4994270;28;20212;-76
2022/09/10 09:41:59;;;;;;;15.85;9.57;;;;;;;31.89;60.71;99833.53;4993953;28;20212;-77
2022/09/10 09:44:31;;;;;;;19.60;9.45;;;;;;;31.80;61.65;99834.25;4994200;28;20208;-78
2022/09/10 09:46:59;;;;;;;18.15;8.48;;;;;;;31.82;60.36;99816.19;4993809;28;20205;-79
2022/09/10 09:49:28;;;;;;;14.02;8.60;;;;;;;31.42;61.19;99829.09;4993804;28;20216;-77
2022/09/10 09:51:55;;;;;;;10.32;7.93;;;;;;;31.37;62.33;99830.38;4993536;28;20667;-79
2022/09/10 09:54:26;;;;;;;15.43;8.75;;;;;;;31.81;61.73;99841.34;4959637;28;20204;-79
2022/09/10 09:56:57;;;;;;;20.35;8.90;;;;;;;31.43;62.58;99830.78;4993851;28;20272;-78
2022/09/10 09:59:26;;;;;;;17.70;8.13;;;;;;;31.44;63.06;99823.59;4993568;28;20582;-78
2022/09/10 10:01:54;;;;;;;17.25;9.02;;;;;;;31.56;62.95;99814.66;4975005;28;20240;-74
2022/09/10 10:04:24;;;;;;;18.13;8.68;;;;;;;31.64;62.32;99812.28;4993436;28;20205;-74
2022/09/10 10:06:56;;;;;;;15.52;9.60;;;;;;;32.04;61.27;99811.84;4993360;28;20299;-73
2022/09/10 10:09:27;;;;;;;17.65;9.60;;;;;;;32.07;60.39;99795.56;4993164;28;20232;-77
2022/09/10 10:11:58;;;;;;;13.43;7.80;;;;;;;32.50;60.50;99812.66;4990258;28;20263;-76
2022/09/10 10:14:38;;;;;;;17.83;9.65;;;;;;;32.95;57.42;99802.75;4987383;28;20208;-79
2022/09/10 10:17:37;;;;;;;20.52;8.32;;;;;;;33.26;56.78;99803.78;4990815;28;20208;-80
2022/09/10 10:20:11;;;;;;;14.10;9.23;;;;;;;33.61;55.48;99807.06;4988494;28;20247;-76
2022/09/10 10:22:40;;;;;;;15.05;9.77;;;;;;;33.48;55.50;99805.53;4992143;28;20236;-75
2022/09/10 10:25:37;;;;;;;15.32;8.27;;;;;;;33.58;55.04;99817.22;4991752;28;20240;-73
2022/09/10 10:28:12;;;;;;;11.13;8.38;;;;;;;33.55;54.55;99812.97;4952620;28;20607;-75
2022/09/10 10:30:40;;;;;;;14.80;8.55;;;;;;;33.08;55.62;99813.34;4949459;28;20231;-76
2022/09/10 10:33:18;;;;;;;15.25;9.25;;;;;;;33.18;55.67;99809.78;4950989;28;20293;-75
2022/09/10 10:35:49;;;;;;;18.92;8.63;;;;;;;33.72;55.59;99815.09;4950353;28;20230;-76
2022/09/10 10:38:33;;;;;;;10.23;8.80;;;;;;;33.85;54.23;99778.09;4950147;28;20202;-75
2022/09/10 10:41:23;;;;;;;9.60;7.10;;;;;;;33.38;54.03;99808.16;4950544;28;20295;-75
2022/09/10 10:43:58;;;;;;;14.30;7.03;;;;;;;33.26;53.92;99798.41;4949751;28;20198;-75
2022/09/10 10:46:36;;;;;;;20.48;7.80;;;;;;;32.90;53.87;99800.44;4973882;28;20235;-74
2022/09/10 10:49:16;;;;;;;8.95;7.07;;;;;;;32.84;54.72;99802.78;4991608;28;20214;-75
2022/09/10 10:51:51;;;;;;;12.80;7.10;;;;;;;32.98;53.63;99785.53;4992175;28;20247;-79
2022/09/10 10:54:36;;;;;;;11.27;7.82;;;;;;;32.93;53.25;99786.75;4991288;28;20208;-74
2022/09/10 10:57:12;;;;;;;12.85;7.68;;;;;;;32.74;53.42;99772.28;4991255;28;20201;-77
2022/09/10 10:59:53;;;;;;;12.07;7.13;;;;;;;32.83;52.71;99756.25;4991617;28;20209;-78
2022/09/10 11:02:32;;;;;;;14.82;7.13;;;;;;;33.14;52.81;99759.13;4965798;28;20653;-75
2022/09/10 11:05:06;;;;;;;11.07;6.55;;;;;;;33.26;52.26;99768.84;5001031;28;20235;-75
2022/09/10 11:07:38;;;;;;;14.10;6.63;;;;;;;33.26;52.04;99760.78;5006764;28;20224;-75
2022/09/10 11:10:14;;;;;;;10.05;6.68;;;;;;;33.45;50.95;99778.91;4990852;28;20201;-75
2022/09/10 11:12:47;;;;;;;28.38;20.40;;;;;;;33.61;53.13;99755.09;4988947;28;20228;-76
2022/09/10 11:15:22;;;;;;;23.33;13.95;;;;;;;32.92;53.90;99752.81;4981016;28;20287;-76
2022/09/10 11:17:54;;;;;;;12.43;8.00;;;;;;;33.00;54.80;99754.03;4974987;28;20224;-75
2022/09/10 11:20:27;;;;;;;12.32;7.68;;;;;;;33.06;55.05;99758.88;4990079;28;20213;-75
2022/09/10 11:23:01;;;;;;;13.00;8.10;;;;;;;33.27;55.06;99759.81;4956442;28;20201;-75
2022/09/10 11:25:33;;;;;;;14.85;7.80;;;;;;;33.38;53.52;99751.69;4972522;28;20225;-76
2022/09/10 11:28:08;;;;;;;14.13;7.20;;;;;;;33.48;54.67;99747.25;4991008;28;20200;-77
2022/09/10 11:30:39;;;;;;;13.32;7.20;;;;;;;33.59;53.60;99747.19;4957276;28;20208;-76